Time;durP1;ratioP1;P1;durP2;ratioP2;P2;SDS_P1;SDS_P2;PMS_P1;PMS_P2;Temp;Humidity;BMP_temperature;BMP_pressure;BME280_temperature;BME280_humidity;BME280_pressure;Samples;Min_cycle;Max_cycle;Signal;HPM_P1;HPM_P2
2022/06/06 00:00:48;;;;;;;0.65;0.65;;;22.50;91.30;;;;;;6213819;23;20074;-74
2022/06/06 00:03:15;;;;;;;0.68;0.65;;;22.50;91.60;;;;;;6213820;23;20000;-75
2022/06/06 00:05:45;;;;;;;0.73;0.65;;;22.50;91.30;;;;;;6213924;23;20004;-74
2022/06/06 00:08:12;;;;;;;1.42;0.70;;;22.50;91.20;;;;;;6212181;23;20095;-75
2022/06/06 00:10:39;;;;;;;0.40;0.40;;;22.50;90.60;;;;;;6213690;23;20001;-74
2022/06/06 00:13:06;;;;;;;1.67;0.40;;;22.60;90.20;;;;;;6213729;23;20031;-74
2022/06/06 00:15:33;;;;;;;0.55;0.50;;;22.60;90.30;;;;;;6213770;23;20050;-74
2022/06/06 00:17:58;;;;;;;0.77;0.77;;;22.60;90.40;;;;;;6213555;23;20082;-74
2022/06/06 00:20:24;;;;;;;0.70;0.70;;;22.60;90.60;;;;;;6212146;23;20001;-74
2022/06/06 00:22:53;;;;;;;0.60;0.60;;;22.50;90.50;;;;;;6213811;23;20512;-74
2022/06/06 00:25:19;;;;;;;1.25;0.60;;;22.50;90.70;;;;;;6213684;23;20005;-75
2022/06/06 00:27:44;;;;;;;1.13;0.82;;;22.50;90.80;;;;;;6212059;23;20075;-74
2022/06/06 00:30:11;;;;;;;1.35;0.60;;;22.50;90.80;;;;;;6213550;23;19997;-74
2022/06/06 00:35:21;;;;;;;1.90;0.55;;;22.40;90.00;;;;;;6213639;23;20345;-74
2022/06/06 00:37:48;;;;;;;1.42;0.73;;;22.40;91.10;;;;;;6211972;23;20001;-75
2022/06/06 00:40:17;;;;;;;1.00;0.40;;;22.40;90.70;;;;;;6211928;23;20050;-75
2022/06/06 00:42:43;;;;;;;0.73;0.35;;;22.30;91.20;;;;;;6213671;23;20437;-75
2022/06/06 00:45:21;;;;;;;1.58;0.55;;;22.30;91.50;;;;;;6213617;23;20027;-76
2022/06/06 00:47:48;;;;;;;2.28;1.00;;;22.20;91.20;;;;;;6213890;23;20037;-74
2022/06/06 00:50:17;;;;;;;1.38;1.00;;;22.20;91.10;;;;;;6213559;23;20310;-75
2022/06/06 00:52:45;;;;;;;0.80;0.70;;;22.20;91.40;;;;;;6213394;23;20001;-74
2022/06/06 00:55:17;;;;;;;0.70;0.70;;;22.20;91.40;;;;;;6213409;23;20004;-74
2022/06/06 00:57:55;;;;;;;0.43;0.40;;;22.20;91.20;;;;;;6211943;23;20005;-74
2022/06/06 01:00:22;;;;;;;0.52;0.50;;;22.20;91.40;;;;;;6213648;23;20001;-74
2022/06/06 01:02:53;;;;;;;0.55;0.55;;;22.20;91.40;;;;;;6212052;23;20488;-74
2022/06/06 01:05:21;;;;;;;0.43;0.43;;;22.20;91.00;;;;;;6213435;23;20085;-74
2022/06/06 01:07:47;;;;;;;2.53;0.77;;;22.20;90.90;;;;;;6213564;23;20005;-74
2022/06/06 01:10:15;;;;;;;1.10;0.90;;;22.20;90.70;;;;;;6213377;23;20028;-74
2022/06/06 01:12:43;;;;;;;1.73;0.45;;;22.20;90.80;;;;;;6213448;23;20009;-74
2022/06/06 01:15:13;;;;;;;1.25;0.50;;;22.20;91.10;;;;;;6213437;23;20432;-74
2022/06/06 01:17:59;;;;;;;0.80;0.73;;;22.20;90.80;;;;;;6213235;23;20365;-75
2022/06/06 01:20:37;;;;;;;2.10;0.40;;;22.10;90.80;;;;;;6213306;23;20001;-75
2022/06/06 01:23:11;;;;;;;0.80;0.60;;;22.10;91.10;;;;;;6211822;23;20009;-75
2022/06/06 01:25:47;;;;;;;0.50;0.50;;;22.10;91.20;;;;;;6213554;23;20000;-74
2022/06/06 01:28:37;;;;;;;2.85;0.50;;;22.00;91.30;;;;;;6213378;23;20457;-75
2022/06/06 01:31:09;;;;;;;2.38;0.50;;;22.00;91.40;;;;;;6211809;23;20004;-74
2022/06/06 01:33:59;;;;;;;0.68;0.65;;;22.00;90.80;;;;;;6213450;23;20008;-74
2022/06/06 01:36:29;;;;;;;1.85;0.55;;;22.00;91.20;;;;;;6213468;23;20007;-74
2022/06/06 01:38:56;;;;;;;0.85;0.70;;;22.00;91.50;;;;;;6213509;23;20004;-74
2022/06/06 01:41:53;;;;;;;1.58;0.77;;;22.00;91.70;;;;;;6211460;23;20307;-74
2022/06/06 01:44:22;;;;;;;1.55;0.57;;;21.90;91.60;;;;;;6211960;23;20329;-74
2022/06/06 01:46:48;;;;;;;0.50;0.50;;;21.90;91.60;;;;;;6215235;23;20007;-74
2022/06/06 01:49:15;;;;;;;0.55;0.55;;;21.90;91.80;;;;;;6215250;23;20032;-74
2022/06/06 01:51:41;;;;;;;0.45;0.45;;;21.80;91.60;;;;;;6215237;23;20460;-74
2022/06/06 01:54:08;;;;;;;0.60;0.60;;;21.80;91.70;;;;;;6215218;23;20005;-74
2022/06/06 01:56:40;;;;;;;0.57;0.50;;;21.80;91.70;;;;;;6213554;23;20008;-75
2022/06/06 01:59:06;;;;;;;1.05;0.63;;;21.80;91.70;;;;;;6214924;23;20433;-74
2022/06/06 02:01:32;;;;;;;3.63;0.82;;;21.80;91.40;;;;;;6215143;23;20001;-74
2022/06/06 02:03:58;;;;;;;1.55;0.68;;;21.80;91.50;;;;;;6215217;23;20008;-75
2022/06/06 02:06:25;;;;;;;1.75;0.75;;;21.80;91.60;;;;;;6215005;23;20096;-74
2022/06/06 02:08:51;;;;;;;1.73;0.40;;;21.80;91.80;;;;;;6214942;23;20008;-74
2022/06/06 02:11:18;;;;;;;0.50;0.50;;;21.70;91.90;;;;;;6213389;23;20005;-74
2022/06/06 02:13:44;;;;;;;0.60;0.60;;;21.80;91.90;;;;;;6214924;23;20072;-74
2022/06/06 02:16:10;;;;;;;1.30;1.02;;;21.70;91.70;;;;;;6213347;23;20020;-74
2022/06/06 02:18:36;;;;;;;0.63;0.63;;;21.70;92.20;;;;;;6214722;23;20204;-74
2022/06/06 02:21:03;;;;;;;0.60;0.52;;;21.70;92.10;;;;;;6214846;23;20388;-74
2022/06/06 02:23:29;;;;;;;2.67;0.85;;;21.60;92.30;;;;;;6214800;23;20000;-74
2022/06/06 02:25:55;;;;;;;2.28;2.17;;;21.60;92.20;;;;;;6214828;23;20004;-74
2022/06/06 02:28:21;;;;;;;2.00;0.70;;;21.70;92.70;;;;;;6214733;23;20377;-74
2022/06/06 02:30:47;;;;;;;1.00;0.85;;;21.60;92.40;;;;;;6213341;23;20057;-74
2022/06/06 02:33:12;;;;;;;0.80;0.80;;;21.50;92.40;;;;;;6213296;23;20032;-74
2022/06/06 02:35:40;;;;;;;1.02;0.93;;;21.50;92.60;;;;;;6214875;23;20075;-74
2022/06/06 02:38:07;;;;;;;1.70;1.48;;;21.50;92.80;;;;;;6214443;23;20492;-74
2022/06/06 02:40:33;;;;;;;0.45;0.45;;;21.50;92.90;;;;;;6214610;23;20078;-74
2022/06/06 02:42:59;;;;;;;1.33;0.80;;;21.50;92.80;;;;;;6214808;23;20001;-74
2022/06/06 02:45:25;;;;;;;1.02;1.02;;;21.40;93.00;;;;;;6212954;23;20087;-74
2022/06/06 02:47:55;;;;;;;1.55;1.45;;;21.40;93.00;;;;;;6214667;23;20012;-74
2022/06/06 02:50:25;;;;;;;0.52;0.52;;;21.40;93.00;;;;;;6214572;23;20365;-74
2022/06/06 02:52:51;;;;;;;0.80;0.80;;;21.40;93.00;;;;;;6214560;23;20005;-74
2022/06/06 02:55:17;;;;;;;0.60;0.60;;;21.40;93.30;;;;;;6214346;23;20000;-74
2022/06/06 02:57:49;;;;;;;0.93;0.70;;;21.40;93.00;;;;;;6212965;23;20075;-74
2022/06/06 03:00:21;;;;;;;2.22;1.40;;;21.40;93.00;;;;;;6214684;23;19997;-74
2022/06/06 03:02:47;;;;;;;0.80;0.80;;;21.40;93.40;;;;;;6212644;23;20004;-74
2022/06/06 03:05:14;;;;;;;2.10;2.00;;;21.40;93.20;;;;;;6214410;23;20004;-74
2022/06/06 03:07:53;;;;;;;1.33;1.23;;;21.40;93.30;;;;;;6212798;23;20066;-73
2022/06/06 03:10:38;;;;;;;1.95;0.80;;;21.50;94.10;;;;;;6212873;23;20011;-75
2022/06/06 03:13:33;;;;;;;1.65;1.55;;;21.50;93.20;;;;;;6212720;23;20333;-74
2022/06/06 03:22:48;;;;;;;2.80;2.10;;;21.40;95.40;;;;;;6214242;23;20495;-74
2022/06/06 03:25:36;;;;;;;4.63;2.35;;;21.50;96.80;;;;;;6212667;23;20012;-74
2022/06/06 03:28:11;;;;;;;2.95;2.30;;;21.40;98.20;;;;;;6212852;23;20433;-74
2022/06/06 03:30:45;;;;;;;3.10;2.30;;;21.40;98.80;;;;;;6214206;23;20005;-74
2022/06/06 03:33:20;;;;;;;3.45;2.10;;;21.40;99.00;;;;;;6212635;23;20079;-74
2022/06/06 03:36:07;;;;;;;1.77;1.17;;;21.40;98.60;;;;;;6213954;23;20000;-74
2022/06/06 03:38:41;;;;;;;3.15;1.38;;;21.40;96.70;;;;;;6214064;23;20035;-74
2022/06/06 03:41:21;;;;;;;2.03;0.98;;;21.30;95.80;;;;;;6214089;23;20072;-74
2022/06/06 03:44:15;;;;;;;0.65;0.65;;;21.30;94.40;;;;;;6212533;23;20012;-74
2022/06/06 03:46:48;;;;;;;1.50;1.15;;;21.30;94.80;;;;;;6201685;23;20004;-74
2022/06/06 03:49:29;;;;;;;2.22;1.10;;;21.20;97.10;;;;;;6212307;23;20000;-74
2022/06/06 03:52:03;;;;;;;0.70;0.60;;;21.10;96.60;;;;;;6214000;23;20080;-74
2022/06/06 03:54:38;;;;;;;2.80;1.02;;;21.10;96.00;;;;;;6213956;23;20001;-74
2022/06/06 03:57:18;;;;;;;2.38;1.80;;;21.10;96.70;;;;;;6213913;23;20315;-74
2022/06/06 03:59:47;;;;;;;2.05;0.90;;;21.00;98.40;;;;;;6213999;23;20012;-75
2022/06/06 04:02:22;;;;;;;0.70;0.70;;;21.00;96.90;;;;;;6214040;23;20015;-74
2022/06/06 04:04:49;;;;;;;1.35;1.05;;;21.00;96.60;;;;;;6212358;23;20009;-74
2022/06/06 04:07:15;;;;;;;1.13;1.00;;;21.00;96.40;;;;;;6213506;23;20005;-74
2022/06/06 04:09:40;;;;;;;2.25;0.90;;;20.80;97.20;;;;;;6213772;23;20511;-74
2022/06/06 04:12:31;;;;;;;0.80;0.73;;;20.80;97.70;;;;;;6212115;23;20008;-74
2022/06/06 04:15:06;;;;;;;2.63;1.13;;;20.80;99.00;;;;;;6213989;23;19997;-74
2022/06/06 04:17:48;;;;;;;0.90;0.90;;;20.80;99.70;;;;;;6212055;23;20059;-74
2022/06/06 04:20:20;;;;;;;;;;;20.70;99.50;;;;;;6214187;23;20016;-74
2022/06/06 04:23:34;;;;;;;0.60;0.60;;;20.80;97.70;;;;;;6211766;23;19904;-74
2022/06/06 04:26:10;;;;;;;1.55;1.02;;;20.80;97.00;;;;;;6213527;23;20448;-74
2022/06/06 04:29:04;;;;;;;0.90;0.80;;;20.80;96.70;;;;;;6213754;23;20009;-74
2022/06/06 04:31:53;;;;;;;0.80;0.77;;;20.90;97.20;;;;;;6213606;23;20379;-74
2022/06/06 04:34:29;;;;;;;0.60;0.60;;;20.90;96.80;;;;;;6212068;23;20012;-74
2022/06/06 04:37:07;;;;;;;1.23;0.82;;;20.90;96.60;;;;;;6214004;23;20004;-75
2022/06/06 04:39:35;;;;;;;1.33;1.05;;;20.90;96.60;;;;;;6212117;23;20466;-74
2022/06/06 04:42:33;;;;;;;0.90;0.75;;;21.00;96.90;;;;;;6213379;23;20000;-74
2022/06/06 04:45:21;;;;;;;1.85;0.70;;;21.00;97.30;;;;;;6200428;23;20319;-74
2022/06/06 04:47:49;;;;;;;0.50;0.50;;;21.00;97.50;;;;;;6212383;23;20001;-74
2022/06/06 04:50:21;;;;;;;1.40;0.75;;;21.00;96.80;;;;;;6212371;23;20036;-74
2022/06/06 04:52:54;;;;;;;;;;;21.00;96.50;;;;;;6212854;23;20062;-74
2022/06/06 04:55:22;;;;;;;0.85;0.85;;;21.00;95.90;;;;;;6212460;23;19904;-74
2022/06/06 04:57:51;;;;;;;1.85;0.63;;;21.00;95.70;;;;;;6212649;23;20039;-74
2022/06/06 05:00:17;;;;;;;0.77;0.40;;;21.00;95.50;;;;;;6213614;23;20029;-74
2022/06/06 05:02:43;;;;;;;2.25;0.80;;;21.10;95.70;;;;;;6213374;23;20000;-74
2022/06/06 05:05:10;;;;;;;2.47;0.55;;;21.20;95.60;;;;;;6213468;23;20007;-74
2022/06/06 05:08:03;;;;;;;1.95;0.70;;;21.20;95.30;;;;;;6214271;23;20452;-81
2022/06/06 05:10:59;;;;;;;0.52;0.50;;;21.30;95.30;;;;;;6211906;23;20040;-80
2022/06/06 05:13:36;;;;;;;0.70;0.70;;;21.30;95.30;;;;;;6213216;23;20031;-81
2022/06/06 05:16:31;;;;;;;0.65;0.60;;;21.40;95.40;;;;;;6213422;23;20000;-82
2022/06/06 05:19:06;;;;;;;1.25;0.70;;;21.40;95.80;;;;;;6213885;23;20020;-81
2022/06/06 05:21:40;;;;;;;3.17;1.52;;;21.40;95.70;;;;;;6214025;23;20001;-81
2022/06/06 05:24:14;;;;;;;4.93;0.75;;;21.50;96.00;;;;;;6215623;23;20005;-81
2022/06/06 05:27:04;;;;;;;1.85;0.50;;;21.50;95.90;;;;;;6215217;23;20007;-81
2022/06/06 05:29:45;;;;;;;0.70;0.70;;;21.60;95.80;;;;;;6215421;23;20013;-81
2022/06/06 05:32:47;;;;;;;2.95;0.63;;;21.70;95.90;;;;;;6213751;23;20414;-81
2022/06/06 05:35:40;;;;;;;0.50;0.50;;;21.80;95.80;;;;;;6213805;23;20024;-81
2022/06/06 05:38:24;;;;;;;1.40;1.17;;;21.80;95.50;;;;;;6215314;23;20028;-81
2022/06/06 05:41:11;;;;;;;0.90;0.70;;;21.90;96.20;;;;;;6212081;23;20005;-81
2022/06/06 05:43:58;;;;;;;1.77;0.73;;;21.90;96.40;;;;;;6213220;23;20376;-82
2022/06/06 05:46:35;;;;;;;0.75;0.75;;;22.00;96.10;;;;;;6213016;23;20333;-81
2022/06/06 05:49:13;;;;;;;0.73;0.73;;;22.00;96.60;;;;;;6211371;23;20484;-81
2022/06/06 05:52:10;;;;;;;1.08;0.88;;;22.10;96.50;;;;;;6213065;23;20005;-81
2022/06/06 05:54:57;;;;;;;1.20;0.73;;;22.10;96.50;;;;;;6196697;23;20015;-81
2022/06/06 05:57:41;;;;;;;1.02;0.80;;;22.20;96.20;;;;;;6213764;23;20007;-81
2022/06/06 06:00:41;;;;;;;2.80;0.85;;;22.30;96.00;;;;;;6215060;23;20008;-81
2022/06/06 06:03:28;;;;;;;5.57;1.15;;;22.30;96.20;;;;;;6166552;23;20192;-81
2022/06/06 06:05:57;;;;;;;0.75;0.75;;;22.30;96.00;;;;;;6212526;23;20120;-81
2022/06/06 06:08:29;;;;;;;4.43;1.27;;;22.40;98.90;;;;;;6213926;23;20000;-81
2022/06/06 06:11:04;;;;;;;;;;;22.50;99.30;;;;;;6214881;23;20028;-81
2022/06/06 06:14:06;;;;;;;3.40;1.00;;;22.60;99.50;;;;;;6212473;23;19904;-81
2022/06/06 06:16:36;;;;;;;1.98;1.08;;;22.60;98.90;;;;;;6214442;23;20004;-81
2022/06/06 06:19:09;;;;;;;2.42;1.25;;;22.60;99.80;;;;;;6214403;23;20012;-80
2022/06/06 06:22:07;;;;;;;1.02;1.00;;;22.70;99.40;;;;;;6214841;23;20001;-80
2022/06/06 06:24:40;;;;;;;1.45;1.10;;;22.70;99.90;;;;;;6195098;23;20020;-81
2022/06/06 06:27:07;;;;;;;7.13;1.50;;;22.70;99.90;;;;;;6214899;23;20492;-81
2022/06/06 06:29:33;;;;;;;4.55;1.10;;;22.80;99.90;;;;;;6214725;23;20007;-80
2022/06/06 06:32:35;;;;;;;3.63;1.15;;;22.80;99.90;;;;;;6214499;23;20448;-80
2022/06/06 06:35:22;;;;;;;6.82;1.30;;;22.90;98.20;;;;;;6214888;23;20083;-81
2022/06/06 06:38:13;;;;;;;2.85;1.35;;;22.90;97.80;;;;;;6214783;23;20051;-81
2022/06/06 06:40:42;;;;;;;2.35;1.45;;;23.00;97.70;;;;;;6215063;23;20004;-80
2022/06/06 06:43:17;;;;;;;4.65;1.10;;;23.00;98.20;;;;;;6214965;23;20028;-81
2022/06/06 06:46:10;;;;;;;3.90;1.10;;;23.10;98.40;;;;;;6214649;23;20012;-80
2022/06/06 06:48:44;;;;;;;3.80;1.80;;;23.10;98.80;;;;;;6214554;23;20016;-80
2022/06/06 06:51:36;;;;;;;4.80;1.60;;;23.10;98.00;;;;;;6214594;23;20436;-80
2022/06/06 06:54:13;;;;;;;4.53;1.67;;;23.10;98.00;;;;;;6214566;23;20001;-80
2022/06/06 06:57:09;;;;;;;3.58;1.42;;;23.20;98.40;;;;;;6214707;23;20023;-80
2022/06/06 06:59:47;;;;;;;9.77;2.03;;;23.20;98.50;;;;;;6214590;23;20333;-80
2022/06/06 07:08:55;;;;;;;2.55;1.70;;;23.40;97.50;;;;;;6214296;23;20043;-80
2022/06/06 07:12:14;;;;;;;3.67;1.92;;;23.40;98.10;;;;;;6214268;23;20004;-80
2022/06/06 07:15:11;;;;;;;4.75;2.30;;;23.40;97.60;;;;;;6097471;23;20014;-80
2022/06/06 07:17:49;;;;;;;4.22;2.42;;;23.40;97.60;;;;;;6188623;23;20556;-80
2022/06/06 07:20:17;;;;;;;5.32;1.88;;;23.40;97.80;;;;;;6214749;23;20008;-81
2022/06/06 07:23:02;;;;;;;3.75;2.03;;;23.50;99.30;;;;;;6215262;23;20001;-80
2022/06/06 07:25:40;;;;;;;5.93;2.35;;;23.50;97.70;;;;;;6213756;23;20001;-81
2022/06/06 07:28:11;;;;;;;3.67;1.75;;;23.70;98.00;;;;;;6214652;23;19996;-81
2022/06/06 07:30:51;;;;;;;3.67;1.80;;;23.70;98.40;;;;;;6215454;23;20008;-81
2022/06/06 07:33:31;;;;;;;4.55;2.45;;;23.70;98.30;;;;;;6215170;23;20001;-80
2022/06/06 07:36:03;;;;;;;3.53;1.88;;;23.70;98.20;;;;;;6215538;23;19996;-80
2022/06/06 07:38:38;;;;;;;3.25;2.25;;;23.80;98.10;;;;;;6213767;23;20054;-80
2022/06/06 07:41:25;;;;;;;4.68;2.30;;;23.80;98.20;;;;;;6214877;23;19997;-81
2022/06/06 07:44:23;;;;;;;4.72;2.15;;;23.80;96.90;;;;;;6215483;23;19993;-80
2022/06/06 07:46:58;;;;;;;4.15;1.98;;;23.80;97.80;;;;;;6209916;23;20079;-80
2022/06/06 07:49:37;;;;;;;3.65;1.80;;;23.90;97.60;;;;;;6215128;23;20492;-80
2022/06/06 07:52:13;;;;;;;5.15;2.05;;;24.00;97.40;;;;;;6213298;23;20008;-80
2022/06/06 07:54:57;;;;;;;9.40;2.10;;;24.00;96.90;;;;;;6213410;23;20007;-81
2022/06/06 07:57:52;;;;;;;6.28;2.53;;;24.00;96.90;;;;;;6212701;23;20001;-80
2022/06/06 08:00:28;;;;;;;5.68;2.33;;;24.10;96.90;;;;;;6187102;23;20013;-81
2022/06/06 08:03:15;;;;;;;4.25;2.20;;;24.10;96.70;;;;;;6214692;23;20011;-81
2022/06/06 08:06:04;;;;;;;8.38;2.40;;;24.20;97.80;;;;;;6214597;23;20503;-80
2022/06/06 08:09:07;;;;;;;3.97;2.13;;;24.20;98.30;;;;;;6214445;23;20009;-81
2022/06/06 08:11:32;;;;;;;2.92;2.13;;;24.40;98.60;;;;;;6214756;23;20004;-80
2022/06/06 08:13:58;;;;;;;6.18;2.17;;;24.50;99.00;;;;;;6212421;23;20447;-81
2022/06/06 08:16:30;;;;;;;5.53;2.45;;;24.50;96.20;;;;;;6212814;23;20413;-80
2022/06/06 08:18:56;;;;;;;;;;;24.50;96.70;;;;;;6215519;23;20013;-81
2022/06/06 08:21:33;;;;;;;2.03;1.80;;;24.50;96.50;;;;;;6215269;23;20339;-81
2022/06/06 08:24:03;;;;;;;7.70;1.98;;;24.50;96.20;;;;;;6215378;23;20103;-80
2022/06/06 08:26:31;;;;;;;5.25;2.50;;;24.50;96.10;;;;;;6215445;23;20084;-80
2022/06/06 08:29:00;;;;;;;4.80;2.17;;;24.50;96.70;;;;;;6213749;23;20394;-80
2022/06/06 08:31:26;;;;;;;3.55;1.75;;;24.70;98.20;;;;;;6215220;23;20001;-80
2022/06/06 08:33:51;;;;;;;2.85;2.05;;;24.80;97.50;;;;;;6215381;23;20043;-80
2022/06/06 08:36:32;;;;;;;3.78;1.92;;;24.80;96.70;;;;;;6213617;23;20007;-80
2022/06/06 08:39:19;;;;;;;11.05;2.15;;;24.80;97.20;;;;;;6214075;23;20067;-81
2022/06/06 08:42:18;;;;;;;7.70;2.10;;;24.80;96.70;;;;;;6215281;23;20022;-82
2022/06/06 08:45:32;;;;;;;4.25;2.13;;;24.90;96.60;;;;;;6213585;23;20012;-81
2022/06/06 08:48:21;;;;;;;7.00;2.72;;;24.90;97.50;;;;;;6214851;23;20000;-81
2022/06/06 08:51:24;;;;;;;3.90;1.80;;;25.10;96.80;;;;;;6215186;23;20071;-81
2022/06/06 08:54:19;;;;;;;5.88;2.35;;;25.20;96.10;;;;;;6122334;23;20462;-81
2022/06/06 08:57:04;;;;;;;3.17;2.30;;;25.20;96.00;;;;;;6214317;23;20010;-81
2022/06/06 08:59:48;;;;;;;6.57;3.05;;;25.30;96.20;;;;;;6214252;23;20088;-82
2022/06/06 09:02:32;;;;;;;8.05;2.25;;;25.30;96.60;;;;;;6212869;23;20329;-81
2022/06/06 09:05:35;;;;;;;2.10;1.73;;;25.30;98.10;;;;;;6213051;23;20004;-82
2022/06/06 09:08:39;;;;;;;5.65;2.03;;;25.70;99.30;;;;;;6214504;23;19997;-82
2022/06/06 09:11:34;;;;;;;4.38;2.45;;;25.80;97.80;;;;;;6214671;23;20104;-82
2022/06/06 09:14:15;;;;;;;3.10;2.80;;;25.90;98.20;;;;;;6211623;23;20095;-82
2022/06/06 09:17:10;;;;;;;2.60;2.00;;;25.90;97.70;;;;;;6215052;23;20425;-81
2022/06/06 09:20:20;;;;;;;4.93;1.90;;;25.90;99.00;;;;;;6188117;23;20020;-82
2022/06/06 09:23:04;;;;;;;4.35;2.05;;;25.90;98.70;;;;;;6215057;23;20005;-81
2022/06/06 09:25:48;;;;;;;6.05;2.40;;;26.10;98.50;;;;;;6214282;23;20003;-83
2022/06/06 09:28:43;;;;;;;2.20;1.73;;;26.20;97.00;;;;;;6214216;23;20318;-82
2022/06/06 09:31:27;;;;;;;1.73;1.60;;;26.20;96.70;;;;;;6214624;23;20001;-83
2022/06/06 09:34:23;;;;;;;7.75;1.77;;;26.40;96.70;;;;;;6208059;23;20091;-81
2022/06/06 09:37:16;;;;;;;2.67;1.65;;;26.50;94.90;;;;;;6210035;23;19997;-80
2022/06/06 09:40:13;;;;;;;5.82;2.30;;;26.50;94.80;;;;;;6211506;23;20001;-81
2022/06/06 09:42:48;;;;;;;4.43;2.00;;;26.40;95.10;;;;;;6209555;23;20032;-79
2022/06/06 09:45:26;;;;;;;2.78;2.10;;;26.50;95.90;;;;;;6210314;23;20024;-83
2022/06/06 09:48:00;;;;;;;3.72;2.03;;;26.80;97.00;;;;;;6210964;23;20001;-80
2022/06/06 09:50:45;;;;;;;5.70;2.03;;;26.80;95.60;;;;;;6211889;23;20005;-82
2022/06/06 09:53:20;;;;;;;5.35;1.95;;;26.90;94.70;;;;;;6210293;23;20001;-82
2022/06/06 09:59:39;;;;;;;3.75;1.52;;;27.10;95.70;;;;;;6210946;23;20348;-83
2022/06/06 10:02:23;;;;;;;2.95;1.30;;;27.20;95.20;;;;;;6210415;23;20008;-82
2022/06/06 10:05:26;;;;;;;3.88;1.90;;;27.20;95.50;;;;;;6211084;23;20004;-81
2022/06/06 10:08:29;;;;;;;3.50;1.42;;;27.20;93.80;;;;;;6213413;23;20333;-81
2022/06/06 10:11:30;;;;;;;2.10;1.52;;;27.20;93.80;;;;;;6213904;23;20023;-83
2022/06/06 10:14:04;;;;;;;1.42;1.33;;;27.40;92.60;;;;;;6213296;23;20019;-83
2022/06/06 10:16:34;;;;;;;1.73;1.40;;;27.50;92.20;;;;;;6211636;23;20005;-80
2022/06/06 10:19:28;;;;;;;3.50;1.50;;;27.40;93.20;;;;;;6212230;23;20008;-80
2022/06/06 10:22:00;;;;;;;2.00;1.58;;;27.60;92.60;;;;;;6212754;23;20239;-83
2022/06/06 10:24:47;;;;;;;6.80;1.83;;;27.70;92.50;;;;;;6212003;23;20008;-81
2022/06/06 10:27:37;;;;;;;3.20;1.90;;;27.80;92.90;;;;;;6211384;23;20584;-81
2022/06/06 10:30:12;;;;;;;3.42;1.42;;;27.90;91.40;;;;;;6212710;23;20432;-81
2022/06/06 10:33:02;;;;;;;3.47;2.33;;;28.00;90.30;;;;;;6212407;23;20001;-83
2022/06/06 10:35:59;;;;;;;1.60;1.45;;;28.00;92.40;;;;;;6212872;23;20380;-84
2022/06/06 10:38:34;;;;;;;9.07;1.88;;;28.10;91.50;;;;;;6213563;23;20081;-85
2022/06/06 10:41:21;;;;;;;2.17;1.42;;;28.00;91.40;;;;;;6211637;23;20000;-79
2022/06/06 10:44:24;;;;;;;5.00;1.85;;;28.00;92.60;;;;;;6212858;23;20059;-80
2022/06/06 10:47:16;;;;;;;3.83;1.60;;;28.20;92.10;;;;;;6212215;23;20001;-80
2022/06/06 10:50:02;;;;;;;2.95;1.30;;;28.40;90.70;;;;;;6211981;23;20087;-80
2022/06/06 10:52:45;;;;;;;1.38;1.15;;;28.50;92.40;;;;;;6214675;23;20087;-74
2022/06/06 10:55:31;;;;;;;1.67;1.30;;;28.60;92.70;;;;;;6215487;23;20367;-74
2022/06/06 10:58:02;;;;;;;2.42;1.33;;;28.80;91.50;;;;;;6213139;23;20372;-75
2022/06/06 11:00:46;;;;;;;4.32;1.60;;;28.80;89.50;;;;;;6215131;23;19988;-75
2022/06/06 11:03:38;;;;;;;9.77;2.10;;;28.90;90.80;;;;;;6214855;23;20377;-74
2022/06/06 11:06:13;;;;;;;3.10;1.15;;;29.00;91.90;;;;;;6215015;23;20024;-74
2022/06/06 11:08:57;;;;;;;2.13;1.73;;;29.10;91.90;;;;;;6215000;23;20075;-74
2022/06/06 11:11:46;;;;;;;4.85;1.77;;;29.20;91.30;;;;;;6213607;23;20032;-74
2022/06/06 11:14:40;;;;;;;7.28;1.75;;;29.20;87.20;;;;;;6215596;23;20009;-74
2022/06/06 11:17:31;;;;;;;3.83;1.55;;;29.20;82.90;;;;;;6213706;23;20028;-74
2022/06/06 11:20:08;;;;;;;1.02;1.02;;;29.20;85.90;;;;;;6215326;23;20449;-74
2022/06/06 11:22:37;;;;;;;2.50;1.25;;;29.40;87.60;;;;;;6215599;23;20437;-74
2022/06/06 11:25:09;;;;;;;3.33;1.65;;;29.40;86.30;;;;;;6214096;23;20112;-74
2022/06/06 11:27:35;;;;;;;;;;;29.50;88.00;;;;;;6215933;23;20001;-74
2022/06/06 11:30:13;;;;;;;3.97;1.73;;;29.50;84.30;;;;;;6215460;23;19938;-74
2022/06/06 11:32:50;;;;;;;2.00;1.42;;;29.50;84.50;;;;;;6209532;23;20004;-75
2022/06/06 11:35:35;;;;;;;1.55;1.45;;;29.60;82.20;;;;;;6209242;23;20055;-74
2022/06/06 11:38:29;;;;;;;4.85;1.35;;;29.80;85.50;;;;;;6208758;23;20082;-74
2022/06/06 11:41:19;;;;;;;1.92;1.20;;;29.90;81.80;;;;;;6211396;23;20000;-74
2022/06/06 11:44:13;;;;;;;2.20;1.17;;;30.00;83.20;;;;;;6211147;23;20055;-74
2022/06/06 11:46:52;;;;;;;5.15;1.45;;;30.00;78.10;;;;;;6210003;23;20059;-74
2022/06/06 11:49:21;;;;;;;2.90;1.52;;;30.10;79.70;;;;;;6209415;23;20004;-74
2022/06/06 11:52:07;;;;;;;1.55;1.30;;;30.20;80.00;;;;;;6211573;23;20081;-73
2022/06/06 11:54:43;;;;;;;2.13;1.58;;;30.30;80.00;;;;;;6214047;23;20035;-80
2022/06/06 11:57:41;;;;;;;3.13;1.65;;;30.40;78.80;;;;;;6215333;23;20049;-80
2022/06/06 12:00:36;;;;;;;2.25;1.40;;;30.60;81.40;;;;;;6173693;23;20063;-80
2022/06/06 12:03:17;;;;;;;1.50;1.10;;;30.70;76.00;;;;;;6198751;23;20009;-80
2022/06/06 12:05:48;;;;;;;1.92;1.30;;;30.80;77.00;;;;;;6215599;23;20035;-80
2022/06/06 12:08:47;;;;;;;1.35;1.23;;;30.90;76.80;;;;;;6215345;23;20314;-80
2022/06/06 12:11:32;;;;;;;4.03;1.50;;;31.10;79.50;;;;;;6215589;23;20004;-79
2022/06/06 12:14:10;;;;;;;1.55;1.25;;;31.00;78.20;;;;;;6215307;23;20001;-79
2022/06/06 12:16:55;;;;;;;1.50;1.40;;;31.20;74.90;;;;;;6215354;23;20377;-80
2022/06/06 12:19:39;;;;;;;1.60;1.30;;;31.10;73.90;;;;;;6214777;23;20020;-79
2022/06/06 12:22:17;;;;;;;6.10;1.63;;;31.20;74.30;;;;;;6213699;23;20420;-79
2022/06/06 12:24:48;;;;;;;4.45;1.10;;;31.30;75.40;;;;;;6215378;23;20000;-80
2022/06/06 12:27:42;;;;;;;1.88;1.10;;;31.40;75.20;;;;;;6215462;23;20073;-80
2022/06/06 12:30:34;;;;;;;3.83;1.38;;;31.30;73.80;;;;;;6213492;23;20031;-80
2022/06/06 12:33:04;;;;;;;4.88;3.33;;;31.20;74.00;;;;;;6215273;23;20004;-78
2022/06/06 12:35:57;;;;;;;5.30;1.58;;;31.10;78.50;;;;;;6215128;23;20051;-78
2022/06/06 12:38:50;;;;;;;2.40;1.20;;;31.30;77.70;;;;;;6215532;23;20000;-78
2022/06/06 12:41:16;;;;;;;1.75;1.08;;;31.50;74.00;;;;;;6214930;23;20100;-74
2022/06/06 12:44:05;;;;;;;1.58;1.27;;;31.60;72.90;;;;;;6213639;23;20429;-74
2022/06/06 12:47:07;;;;;;;3.70;1.20;;;31.70;73.50;;;;;;6213646;23;20001;-74
2022/06/06 12:49:48;;;;;;;2.85;1.20;;;31.60;72.10;;;;;;6213540;23;20607;-74
2022/06/06 12:52:38;;;;;;;4.07;1.70;;;31.60;69.50;;;;;;6213533;23;20079;-74
2022/06/06 12:57:51;;;;;;;1.30;1.20;;;31.70;69.60;;;;;;6213416;23;20004;-74
2022/06/06 13:01:37;;;;;;;2.33;1.30;;;31.90;72.80;;;;;;6213731;23;20007;-74
2022/06/06 13:03:37;;;;;;;3.65;1.40;;;31.90;71.10;;;;;;6213311;23;20062;-74
2022/06/06 13:06:07;;;;;;;4.20;1.42;;;32.30;71.40;;;;;;6213403;23;20422;-74
2022/06/06 13:09:20;;;;;;;4.07;1.50;;;32.40;70.70;;;;;;6213440;23;19996;-74
2022/06/06 13:11:49;;;;;;;2.85;1.10;;;32.30;66.20;;;;;;6172961;23;20059;-74
2022/06/06 13:14:34;;;;;;;4.13;1.17;;;32.30;70.60;;;;;;6213295;23;20001;-74
2022/06/06 13:17:05;;;;;;;2.30;1.27;;;32.30;67.60;;;;;;6213661;23;20008;-74
2022/06/06 13:19:40;;;;;;;;;;;32.50;70.40;;;;;;6213674;23;20008;-74
2022/06/06 13:22:09;;;;;;;3.22;1.10;;;32.70;70.90;;;;;;6213644;23;19900;-74
2022/06/06 13:24:46;;;;;;;3.83;1.40;;;32.50;64.60;;;;;;6213668;23;20004;-75
2022/06/06 13:27:34;;;;;;;1.05;0.90;;;32.20;65.70;;;;;;6213511;23;20031;-74
2022/06/06 13:30:18;;;;;;;5.63;1.25;;;32.10;64.50;;;;;;6213069;23;20019;-74
2022/06/06 13:32:49;;;;;;;1.30;1.20;;;32.10;66.80;;;;;;6211618;23;20004;-75
2022/06/06 13:35:16;;;;;;;;;;;32.20;66.90;;;;;;6214030;23;20433;-74
2022/06/06 13:37:54;;;;;;;1.00;0.90;;;32.30;67.10;;;;;;6213450;23;19906;-74
2022/06/06 13:40:33;;;;;;;1.83;1.23;;;32.40;67.20;;;;;;6214466;23;19996;-74
2022/06/06 13:43:04;;;;;;;3.35;1.70;;;32.40;64.50;;;;;;6215612;23;20005;-74
2022/06/06 13:45:33;;;;;;;4.05;1.40;;;32.50;63.20;;;;;;6215596;23;20051;-74
2022/06/06 13:48:11;;;;;;;3.38;1.20;;;32.60;62.80;;;;;;6215021;23;20005;-74
2022/06/06 13:50:56;;;;;;;2.80;1.05;;;32.70;63.50;;;;;;6215047;23;20019;-74
2022/06/06 13:53:25;;;;;;;3.58;1.60;;;32.60;62.50;;;;;;6215241;23;20436;-74
2022/06/06 13:56:12;;;;;;;1.95;1.13;;;32.70;64.40;;;;;;6213774;23;20336;-74
2022/06/06 13:58:47;;;;;;;2.47;1.25;;;32.80;61.80;;;;;;6214870;23;20358;-74
2022/06/06 14:01:24;;;;;;;4.07;1.30;;;33.00;63.60;;;;;;6215164;23;20004;-74
2022/06/06 14:04:11;;;;;;;1.63;1.08;;;33.10;63.20;;;;;;6215518;23;20336;-74
2022/06/06 14:07:15;;;;;;;7.45;1.73;;;33.10;59.60;;;;;;6215344;23;20055;-75
2022/06/06 14:09:44;;;;;;;3.05;1.80;;;33.20;59.50;;;;;;6214851;23;20310;-74
2022/06/06 14:12:31;;;;;;;1.67;1.55;;;33.30;60.30;;;;;;6213424;23;20338;-74